Página principal
METAR-TAF:

METAR-TAF

Aeroportos :

Aeroporto de Yakutsk

Yakutsk, Rússia

latitude: 62-01N, longitude: 129-43E, altura: 103 m

Observação actual do tempo

O boletim foi feito há 46 minutos, às 02:00 UTC
Vento 2 kt de su-sudeste
Temperatura -2°C
Humidade 36%
Pressão 1016 hPa
Visibilidade 10 km ou mais
sem nuvens abaixo de 1500 metros e sem cumulonimbus

METAR: UEEE 190200Z 16001MPS CAVOK M02/M15 Q1016 R23L/09//64 NOSIG RMK QFE754

Hora: 11:46 (02:46 UTC)

Previsão

O boletim foi feito há 46 minutos, às 02:00 UTC
Previsão válida de 19 às 03 UTC a 20 às 09 UTC
Vento 6 kt de este com rajadas de 16 kt
Visibilidade 10 km ou mais
Nuvens dispersasa uma altura de 3000 ft
Nuvens fragmentadasa uma altura de 7000 ft

TAF: UEEE 190200Z 1903/2009 10003G08MPS 9999 SCT030 BKN070

Observações e previsões do tempo de mais de 4000 aeroportos (mensagens METAR e TAF).

As estações disponíveis são os pontos amarelos e vermelhos sobre o mapa.

Mova o rato sobre o mapa para ver o nome da estação.

Depois clique no ponto para visualizar as observações e previsões meteorológicas.

Para alterar o mapa : clique nos botões verdes com uma cruz preta para aumentar o zoom; no botão verde com uma pitada de zoom; ou nas setas verdes para mapas adjacentes.


METAR-TAF: